createdAt,value
2023-11-30T00:00:45.345Z,16.97
2023-11-30T00:03:12.911Z,17.06
2023-11-30T00:05:41.826Z,17.06
2023-11-30T00:08:09.358Z,17.03
2023-11-30T00:10:36.880Z,16.99
2023-11-30T00:13:05.016Z,16.98
2023-11-30T00:15:32.843Z,17.01
2023-11-30T00:18:00.478Z,17.00
2023-11-30T00:20:28.062Z,16.99
2023-11-30T00:22:56.934Z,16.99
2023-11-30T00:25:24.487Z,17.04
2023-11-30T00:27:52.493Z,17.03
2023-11-30T00:30:20.068Z,17.03
2023-11-30T00:32:47.708Z,17.00
2023-11-30T00:35:15.375Z,17.03
2023-11-30T00:37:42.921Z,17.01
2023-11-30T00:40:12.399Z,17.03
2023-11-30T00:42:40.041Z,17.06
2023-11-30T00:45:09.085Z,17.03
2023-11-30T00:47:36.454Z,17.04
2023-11-30T00:50:04.462Z,17.05
2023-11-30T00:52:31.963Z,17.08
2023-11-30T00:54:59.455Z,17.06
2023-11-30T00:57:28.417Z,17.10
2023-11-30T00:59:55.890Z,17.11
2023-11-30T01:02:23.515Z,17.13
2023-11-30T01:04:51.042Z,17.14
2023-11-30T01:07:18.568Z,17.09
2023-11-30T01:09:46.077Z,17.06
2023-11-30T01:12:13.589Z,17.04
2023-11-30T01:14:43.352Z,17.05
2023-11-30T01:17:10.887Z,17.06
2023-11-30T01:19:38.367Z,17.01
2023-11-30T01:22:07.799Z,16.98
2023-11-30T01:24:35.334Z,17.03
2023-11-30T01:27:03.172Z,17.06
2023-11-30T01:29:30.645Z,17.00
2023-11-30T01:31:59.504Z,17.02
2023-11-30T01:34:27.029Z,17.03
2023-11-30T01:36:54.561Z,17.02
2023-11-30T01:39:22.148Z,17.06
2023-11-30T01:41:49.782Z,17.06
2023-11-30T01:44:17.334Z,17.11
2023-11-30T01:46:44.877Z,17.08
2023-11-30T01:49:13.787Z,17.11
2023-11-30T01:51:42.208Z,17.10
2023-11-30T01:54:09.757Z,17.15
2023-11-30T01:56:37.441Z,17.24
2023-11-30T01:59:04.983Z,17.19
2023-11-30T02:01:32.785Z,17.18
2023-11-30T02:04:00.453Z,17.19
2023-11-30T02:06:29.315Z,17.18
2023-11-30T02:08:56.867Z,17.18
2023-11-30T02:11:24.394Z,17.19
2023-11-30T02:13:51.983Z,17.17
2023-11-30T02:16:19.663Z,17.19
2023-11-30T02:18:47.244Z,17.16
2023-11-30T02:21:14.846Z,17.17
2023-11-30T02:23:43.796Z,17.21
2023-11-30T02:26:11.976Z,17.15
2023-11-30T02:28:39.523Z,17.18
2023-11-30T02:31:07.133Z,17.17
2023-11-30T02:33:34.634Z,17.18
2023-11-30T02:36:02.178Z,17.20
2023-11-30T02:38:29.750Z,17.19
2023-11-30T02:40:58.589Z,17.20
2023-11-30T02:43:29.123Z,17.23
2023-11-30T02:45:56.670Z,17.19
2023-11-30T02:48:24.229Z,17.15
2023-11-30T02:50:51.794Z,17.23
2023-11-30T02:53:19.299Z,17.21
2023-11-30T02:55:46.827Z,17.19
2023-11-30T02:58:15.747Z,17.22
2023-11-30T03:00:43.138Z,17.24
2023-11-30T03:03:10.790Z,17.22
2023-11-30T03:05:38.335Z,17.19
2023-11-30T03:08:06.368Z,17.15
2023-11-30T03:10:33.952Z,17.14
2023-11-30T03:13:01.484Z,17.14
2023-11-30T03:15:31.977Z,17.14
2023-11-30T03:17:59.740Z,17.14
2023-11-30T03:20:27.362Z,17.13
2023-11-30T03:22:54.893Z,17.15
2023-11-30T03:25:22.520Z,17.11
2023-11-30T03:27:50.018Z,17.16
2023-11-30T03:30:17.590Z,17.19
2023-11-30T03:32:46.706Z,17.21
2023-11-30T03:35:14.355Z,17.19
2023-11-30T03:37:43.923Z,17.19
2023-11-30T03:40:12.428Z,17.14
2023-11-30T03:42:39.999Z,17.13
2023-11-30T03:45:08.223Z,17.08
2023-11-30T03:47:35.900Z,17.01
2023-11-30T03:50:05.139Z,17.02
2023-11-30T03:52:32.730Z,17.03
2023-11-30T03:55:00.298Z,17.05
2023-11-30T03:57:27.863Z,17.08
2023-11-30T03:59:55.438Z,17.09
2023-11-30T04:02:23.048Z,17.10
2023-11-30T04:04:50.621Z,17.13
2023-11-30T04:07:19.478Z,17.09
2023-11-30T04:09:48.540Z,17.13
2023-11-30T04:12:16.054Z,17.16
2023-11-30T04:14:43.548Z,17.15
2023-11-30T04:17:11.681Z,17.17
2023-11-30T04:19:39.206Z,17.23
2023-11-30T04:22:06.767Z,17.24
2023-11-30T04:24:35.717Z,17.23
2023-11-30T04:27:03.584Z,17.21
2023-11-30T04:29:31.134Z,17.25
2023-11-30T04:31:58.695Z,17.25
2023-11-30T04:34:26.201Z,17.28
2023-11-30T04:36:53.740Z,17.26
2023-11-30T04:39:21.862Z,17.26
2023-11-30T04:41:51.038Z,17.27
2023-11-30T04:44:20.190Z,17.29
2023-11-30T04:46:49.078Z,17.28
2023-11-30T04:49:16.624Z,17.34
2023-11-30T04:51:44.143Z,17.30
2023-11-30T04:54:11.675Z,17.27
2023-11-30T04:56:39.447Z,17.25
2023-11-30T04:59:08.319Z,17.28
2023-11-30T05:01:37.290Z,17.28
2023-11-30T05:04:05.234Z,17.25
2023-11-30T05:06:32.946Z,17.26
2023-11-30T05:09:00.474Z,17.27
2023-11-30T05:11:28.017Z,17.26
2023-11-30T05:13:55.616Z,17.29
2023-11-30T05:16:24.543Z,17.29
2023-11-30T05:18:51.949Z,17.30
2023-11-30T05:21:19.502Z,17.34
2023-11-30T05:23:47.019Z,17.30
2023-11-30T05:26:14.614Z,17.33
2023-11-30T05:28:42.344Z,17.36
2023-11-30T05:31:09.987Z,17.37
2023-11-30T05:33:39.350Z,17.31
2023-11-30T05:36:07.746Z,17.26
2023-11-30T05:38:35.237Z,17.25
2023-11-30T05:41:02.822Z,17.28
2023-11-30T05:43:33.613Z,17.32
2023-11-30T05:46:01.988Z,17.30
2023-11-30T05:48:29.565Z,17.28
2023-11-30T05:50:58.523Z,17.32
2023-11-30T05:53:26.662Z,17.29
2023-11-30T05:55:54.204Z,17.27
2023-11-30T05:58:21.717Z,17.29
2023-11-30T06:00:49.301Z,17.31
2023-11-30T06:03:16.905Z,17.32
2023-11-30T06:05:44.490Z,17.35
2023-11-30T06:08:13.320Z,17.30
2023-11-30T06:10:40.853Z,17.37
2023-11-30T06:13:08.975Z,17.35
2023-11-30T06:15:36.634Z,17.42
2023-11-30T06:18:04.383Z,17.40
2023-11-30T06:20:32.106Z,17.40
2023-11-30T06:22:59.587Z,17.41
2023-11-30T06:25:28.441Z,17.37
2023-11-30T06:27:55.985Z,17.39
2023-11-30T06:30:23.513Z,17.41
2023-11-30T06:32:51.049Z,17.47
2023-11-30T06:35:18.606Z,17.46
2023-11-30T06:37:46.190Z,17.43
2023-11-30T06:40:14.378Z,17.48
2023-11-30T06:42:43.294Z,17.46
2023-11-30T06:45:11.122Z,17.52
2023-11-30T06:47:38.735Z,17.47
2023-11-30T06:50:07.925Z,17.51
2023-11-30T06:52:35.435Z,17.49
2023-11-30T06:55:03.760Z,17.53
2023-11-30T06:57:31.352Z,17.52
2023-11-30T07:00:00.389Z,17.51
2023-11-30T07:02:29.202Z,17.51
2023-11-30T07:04:56.900Z,17.51
2023-11-30T07:07:31.481Z,17.51
2023-11-30T07:10:03.819Z,17.50
2023-11-30T07:12:31.426Z,17.50
2023-11-30T07:15:00.536Z,17.48
2023-11-30T07:17:28.122Z,17.57
2023-11-30T07:19:55.645Z,17.50
2023-11-30T07:22:25.737Z,17.52
2023-11-30T07:24:53.418Z,17.52
2023-11-30T07:27:21.036Z,17.52
2023-11-30T07:29:48.712Z,17.57
2023-11-30T07:32:17.842Z,17.55
2023-11-30T07:34:46.871Z,17.49
2023-11-30T07:37:17.172Z,17.49
2023-11-30T07:39:44.865Z,17.48
2023-11-30T07:42:13.360Z,17.50
2023-11-30T07:44:42.075Z,17.48
2023-11-30T07:47:09.674Z,17.49
2023-11-30T07:49:38.688Z,17.51
2023-11-30T07:52:06.274Z,17.53
2023-11-30T07:54:33.821Z,17.55
2023-11-30T07:57:02.081Z,17.55
2023-11-30T07:59:29.756Z,17.52
2023-11-30T08:01:57.299Z,17.46
2023-11-30T08:04:24.950Z,17.48
2023-11-30T08:06:53.864Z,17.51
2023-11-30T08:09:22.280Z,17.52
2023-11-30T08:11:49.861Z,17.56
2023-11-30T08:14:17.474Z,17.56
2023-11-30T08:16:45.006Z,17.53
2023-11-30T08:19:12.585Z,17.53
2023-11-30T08:21:42.050Z,17.55
2023-11-30T08:24:11.023Z,17.56
2023-11-30T08:26:38.439Z,17.57
2023-11-30T08:29:06.024Z,17.55
2023-11-30T08:31:34.694Z,17.58
2023-11-30T08:34:02.448Z,17.60
2023-11-30T08:36:30.047Z,17.56
2023-11-30T08:38:57.554Z,17.55
2023-11-30T08:41:26.408Z,17.58
2023-11-30T08:43:53.927Z,17.61
2023-11-30T08:46:21.575Z,17.59
2023-11-30T08:48:49.183Z,17.58
2023-11-30T08:51:16.822Z,17.59
2023-11-30T08:53:44.432Z,17.56
2023-11-30T08:56:12.877Z,17.61
2023-11-30T08:58:41.769Z,17.62
2023-11-30T09:01:09.529Z,17.61
2023-11-30T09:03:37.148Z,17.58
2023-11-30T09:06:05.202Z,17.57
2023-11-30T09:08:34.692Z,17.59
2023-11-30T09:11:02.210Z,17.61
2023-11-30T09:13:29.714Z,17.61
2023-11-30T09:15:58.684Z,17.59
2023-11-30T09:18:26.132Z,17.59
2023-11-30T09:20:53.629Z,17.64
2023-11-30T09:23:21.142Z,17.65
2023-11-30T09:25:48.650Z,17.57
2023-11-30T09:28:16.203Z,17.62
2023-11-30T09:30:43.860Z,17.60
2023-11-30T09:33:14.365Z,17.60
2023-11-30T09:35:41.944Z,17.58
2023-11-30T09:38:10.698Z,17.63
2023-11-30T09:40:38.248Z,17.66
2023-11-30T09:43:05.821Z,17.62
2023-11-30T09:45:33.403Z,17.64
2023-11-30T09:48:00.950Z,17.66
2023-11-30T09:50:29.820Z,17.71
2023-11-30T09:52:57.338Z,17.69
2023-11-30T09:55:26.592Z,17.68
2023-11-30T09:57:54.204Z,17.71
2023-11-30T10:00:22.358Z,17.69
2023-11-30T10:02:54.432Z,17.67
2023-11-30T10:05:22.285Z,17.68
2023-11-30T10:07:51.203Z,17.70
2023-11-30T10:10:18.539Z,17.73
2023-11-30T10:12:46.139Z,17.69
2023-11-30T10:15:13.982Z,17.69
2023-11-30T10:17:42.692Z,17.71
2023-11-30T10:20:12.526Z,17.68
2023-11-30T10:22:40.553Z,17.69
2023-11-30T10:25:10.260Z,17.70
2023-11-30T10:27:37.983Z,17.73
2023-11-30T10:30:07.668Z,17.69
2023-11-30T10:32:36.710Z,17.62
2023-11-30T10:35:06.236Z,17.64
2023-11-30T10:37:35.023Z,17.62
2023-11-30T10:40:05.012Z,17.62
2023-11-30T10:42:34.931Z,17.66
2023-11-30T10:45:03.364Z,17.63
2023-11-30T10:47:31.380Z,17.61
2023-11-30T10:49:58.948Z,17.67
2023-11-30T10:52:26.899Z,17.62
2023-11-30T10:54:57.125Z,17.62
2023-11-30T10:57:24.642Z,17.69
2023-11-30T10:59:59.622Z,17.62
2023-11-30T11:02:27.242Z,17.65
2023-11-30T11:04:54.873Z,17.76
2023-11-30T11:07:22.483Z,17.73
2023-11-30T11:09:53.043Z,17.74
2023-11-30T11:12:21.585Z,17.73
2023-11-30T11:14:50.314Z,17.72
2023-11-30T11:17:21.525Z,17.74
2023-11-30T11:19:49.070Z,17.75
2023-11-30T11:22:17.764Z,17.73
2023-11-30T11:24:46.130Z,17.84
2023-11-30T11:27:14.020Z,17.86
2023-11-30T11:29:45.038Z,17.88
2023-11-30T11:32:13.260Z,17.77
2023-11-30T11:34:42.127Z,17.82
2023-11-30T11:37:09.637Z,17.83
2023-11-30T11:39:37.285Z,17.82
2023-11-30T11:42:05.236Z,17.82
2023-11-30T11:44:32.770Z,17.82
2023-11-30T11:47:00.778Z,17.83
2023-11-30T11:49:28.341Z,17.81
2023-11-30T11:51:57.275Z,17.83
2023-11-30T11:54:24.755Z,17.81
2023-11-30T11:56:52.927Z,17.79
2023-11-30T11:59:23.651Z,17.81
2023-11-30T12:01:51.683Z,17.75
2023-11-30T12:04:32.142Z,17.75
2023-11-30T12:07:01.430Z,17.79
2023-11-30T12:09:28.998Z,17.78
2023-11-30T12:12:04.525Z,17.80
2023-11-30T12:14:32.032Z,17.79
2023-11-30T12:17:05.554Z,17.78
2023-11-30T12:19:33.058Z,17.78
2023-11-30T12:22:02.014Z,17.84
2023-11-30T12:24:29.365Z,17.81
2023-11-30T12:26:56.970Z,17.84
2023-11-30T12:29:24.490Z,17.83
2023-11-30T12:31:53.538Z,17.84
2023-11-30T12:34:22.424Z,17.87
2023-11-30T12:36:51.573Z,17.84
2023-11-30T12:39:21.751Z,17.84
2023-11-30T12:41:49.139Z,17.80
2023-11-30T12:44:17.203Z,17.84
2023-11-30T12:46:45.450Z,17.84
2023-11-30T12:49:13.088Z,17.87
2023-11-30T12:51:40.701Z,17.88
2023-11-30T12:54:08.903Z,17.82
2023-11-30T12:56:37.823Z,17.84
2023-11-30T12:59:05.399Z,17.81
2023-11-30T13:01:32.954Z,17.82
2023-11-30T13:04:01.522Z,17.74
2023-11-30T13:06:29.247Z,17.75
2023-11-30T13:08:56.776Z,17.79
2023-11-30T13:11:25.011Z,17.82
2023-11-30T13:13:55.912Z,17.81
2023-11-30T13:16:23.597Z,17.84
2023-11-30T13:18:51.298Z,17.85
2023-11-30T13:21:18.946Z,17.93
2023-11-30T13:23:46.493Z,17.93
2023-11-30T13:26:14.080Z,17.92
2023-11-30T13:28:47.691Z,17.92
2023-11-30T13:31:21.179Z,17.92
2023-11-30T13:33:48.854Z,17.86
2023-11-30T13:36:16.872Z,17.95
2023-11-30T13:38:44.420Z,17.99
2023-11-30T13:41:11.994Z,17.95
2023-11-30T13:43:39.665Z,17.96
2023-11-30T13:46:13.870Z,17.94
2023-11-30T13:48:42.844Z,17.91
2023-11-30T13:51:10.464Z,17.97
2023-11-30T13:53:39.347Z,17.91
2023-11-30T13:56:07.806Z,17.94
2023-11-30T13:58:35.317Z,17.90
2023-11-30T14:01:02.896Z,17.91
2023-11-30T14:03:30.570Z,17.95
2023-11-30T14:05:59.481Z,17.86
2023-11-30T14:08:27.728Z,17.91
2023-11-30T14:10:55.310Z,17.90
2023-11-30T14:13:22.821Z,17.93
2023-11-30T14:15:50.381Z,17.95
2023-11-30T14:18:18.334Z,17.90
2023-11-30T14:20:45.950Z,17.94
2023-11-30T14:23:14.895Z,17.93
2023-11-30T14:25:42.730Z,17.90
2023-11-30T14:28:12.812Z,17.93
2023-11-30T14:30:41.625Z,17.86
2023-11-30T14:33:12.331Z,17.89
2023-11-30T14:35:41.553Z,17.89
2023-11-30T14:38:09.472Z,17.93
2023-11-30T14:40:38.648Z,17.90
2023-11-30T14:43:06.977Z,17.92
2023-11-30T14:45:34.584Z,17.91
2023-11-30T14:48:02.250Z,17.94
2023-11-30T14:50:29.803Z,17.97
2023-11-30T14:52:57.391Z,17.90
2023-11-30T14:55:24.884Z,17.92
2023-11-30T14:57:55.128Z,17.95
2023-11-30T15:00:24.279Z,17.91
2023-11-30T15:02:53.769Z,17.96
2023-11-30T15:05:21.505Z,17.91
2023-11-30T15:07:49.093Z,17.89
2023-11-30T15:10:18.239Z,17.91
2023-11-30T15:12:45.847Z,17.97
2023-11-30T15:15:16.482Z,17.96
2023-11-30T15:17:45.082Z,17.97
2023-11-30T15:20:13.848Z,17.96
2023-11-30T15:22:41.469Z,17.93
2023-11-30T15:25:11.182Z,17.95
2023-11-30T15:27:38.843Z,17.96
2023-11-30T15:30:08.898Z,17.97
2023-11-30T15:32:37.827Z,17.93
2023-11-30T15:35:05.917Z,17.99
2023-11-30T15:37:36.133Z,17.99
2023-11-30T15:40:06.514Z,17.93
2023-11-30T15:42:34.549Z,17.96
2023-11-30T15:45:02.123Z,17.98
2023-11-30T15:47:29.701Z,17.97
2023-11-30T15:49:59.048Z,17.92
2023-11-30T15:52:26.742Z,17.96
2023-11-30T15:54:54.501Z,17.95
2023-11-30T15:57:23.936Z,17.96
2023-11-30T15:59:51.478Z,17.95
2023-11-30T16:02:19.049Z,18.00
2023-11-30T16:04:46.744Z,17.97
2023-11-30T16:07:15.656Z,17.98
2023-11-30T16:09:45.008Z,17.99
2023-11-30T16:12:12.602Z,18.01
2023-11-30T16:14:40.963Z,17.95
2023-11-30T16:17:09.032Z,17.95
2023-11-30T16:19:36.635Z,17.91
2023-11-30T16:22:04.741Z,17.93
2023-11-30T16:24:33.713Z,17.96
2023-11-30T16:27:01.762Z,17.96
2023-11-30T16:33:20.417Z,17.96
2023-11-30T16:35:48.676Z,17.94
2023-11-30T16:38:16.229Z,17.99
2023-11-30T16:40:45.137Z,17.95
2023-11-30T16:43:12.698Z,17.94
2023-11-30T16:45:40.297Z,17.99
2023-11-30T16:48:07.865Z,17.93
2023-11-30T16:50:35.516Z,17.90
2023-11-30T16:53:04.795Z,17.92
2023-11-30T16:55:32.799Z,17.90
2023-11-30T16:58:01.767Z,17.92
2023-11-30T17:00:29.165Z,17.90
2023-11-30T17:02:57.111Z,17.91
2023-11-30T17:05:24.797Z,17.92
2023-11-30T17:07:52.549Z,17.92
2023-11-30T17:10:20.064Z,17.89
2023-11-30T17:12:47.642Z,17.90
2023-11-30T17:15:18.221Z,17.90
2023-11-30T17:17:46.998Z,17.86
2023-11-30T17:20:14.706Z,17.90
2023-11-30T17:22:42.741Z,17.92
2023-11-30T17:25:10.694Z,17.95
2023-11-30T17:27:38.271Z,17.91
2023-11-30T17:30:06.454Z,17.91
2023-11-30T17:32:35.464Z,17.93
2023-11-30T17:35:03.298Z,17.90
2023-11-30T17:37:31.080Z,17.88
2023-11-30T17:39:58.702Z,17.85
2023-11-30T17:42:26.243Z,17.89
2023-11-30T17:44:53.805Z,17.91
2023-11-30T17:47:21.437Z,17.93
2023-11-30T17:49:50.330Z,18.06
2023-11-30T17:52:17.741Z,18.02
2023-11-30T17:54:45.289Z,17.87
2023-11-30T17:57:12.803Z,17.92
2023-11-30T17:59:40.301Z,17.89
2023-11-30T18:02:07.916Z,17.93
2023-11-30T18:04:35.745Z,18.03
2023-11-30T18:07:08.523Z,18.15
2023-11-30T18:12:03.407Z,18.22
2023-11-30T18:14:32.974Z,18.27
2023-11-30T18:17:00.789Z,18.34
2023-11-30T18:19:28.360Z,18.30
2023-11-30T18:21:55.951Z,18.15
2023-11-30T18:24:30.634Z,18.04
2023-11-30T18:26:58.572Z,17.98
2023-11-30T18:29:26.217Z,17.96
2023-11-30T18:31:53.845Z,17.96
2023-11-30T18:34:21.464Z,17.96
2023-11-30T18:36:49.058Z,17.96
2023-11-30T18:39:16.806Z,17.96
2023-11-30T18:41:45.755Z,17.99
2023-11-30T18:44:13.169Z,17.99
2023-11-30T18:46:40.785Z,18.00
2023-11-30T18:49:08.619Z,17.99
2023-11-30T18:51:36.901Z,17.96
2023-11-30T18:54:04.660Z,17.94
2023-11-30T18:56:32.311Z,17.94
2023-11-30T18:59:01.711Z,17.94
2023-11-30T19:01:30.504Z,17.95
2023-11-30T19:03:58.401Z,17.93
2023-11-30T19:06:25.989Z,17.93
2023-11-30T19:08:54.125Z,17.92
2023-11-30T19:11:22.497Z,17.92
2023-11-30T19:13:50.084Z,17.91
2023-11-30T19:16:19.194Z,17.92
2023-11-30T19:18:48.589Z,17.92
2023-11-30T19:21:16.840Z,17.90
2023-11-30T19:23:46.131Z,17.92
2023-11-30T19:26:13.964Z,17.92
2023-11-30T19:28:41.556Z,17.90
2023-11-30T19:31:09.367Z,17.92
2023-11-30T19:33:38.321Z,17.91
2023-11-30T19:36:06.127Z,17.92
2023-11-30T19:38:33.844Z,17.92
2023-11-30T19:41:01.541Z,17.91
2023-11-30T19:43:29.159Z,17.89
2023-11-30T19:45:59.745Z,17.91
2023-11-30T19:48:28.840Z,17.91
2023-11-30T19:50:57.807Z,17.91
2023-11-30T19:53:25.210Z,17.91
2023-11-30T19:55:52.873Z,17.92
2023-11-30T19:58:20.438Z,17.92
2023-11-30T20:00:49.263Z,17.93
2023-11-30T20:03:16.869Z,17.92
2023-11-30T20:05:44.550Z,17.93
2023-11-30T20:08:13.442Z,17.93
2023-11-30T20:10:40.801Z,17.95
2023-11-30T20:13:08.313Z,17.95
2023-11-30T20:15:36.029Z,17.95
2023-11-30T20:18:05.076Z,17.94
2023-11-30T20:20:32.661Z,17.93
2023-11-30T20:23:01.393Z,17.93
2023-11-30T20:25:30.285Z,17.94
2023-11-30T20:27:57.671Z,17.93
2023-11-30T20:30:26.283Z,17.98
2023-11-30T20:32:53.916Z,17.96
2023-11-30T20:35:21.476Z,17.97
2023-11-30T20:37:50.233Z,17.96
2023-11-30T20:40:17.838Z,17.95
2023-11-30T20:42:46.850Z,17.96
2023-11-30T20:45:15.805Z,17.96
2023-11-30T20:47:43.187Z,17.96
2023-11-30T20:50:10.810Z,18.00
2023-11-30T20:52:38.367Z,17.97
2023-11-30T20:55:06.803Z,17.94
2023-11-30T20:57:36.147Z,17.94
2023-11-30T21:00:07.144Z,17.96
2023-11-30T21:02:35.031Z,17.96
2023-11-30T21:05:02.726Z,17.97
2023-11-30T21:07:30.362Z,17.96
2023-11-30T21:09:58.105Z,17.95
2023-11-30T21:12:26.026Z,17.96
2023-11-30T21:14:53.578Z,17.95
2023-11-30T21:17:22.469Z,17.96
2023-11-30T21:19:50.014Z,17.94
2023-11-30T21:22:17.596Z,17.94
2023-11-30T21:24:45.950Z,17.96
2023-11-30T21:27:13.796Z,17.96
2023-11-30T21:29:41.767Z,17.98
2023-11-30T21:32:10.012Z,17.98
2023-11-30T21:34:40.842Z,17.97
2023-11-30T21:37:08.497Z,17.97
2023-11-30T21:39:36.231Z,17.95
2023-11-30T21:42:03.929Z,17.95
2023-11-30T21:44:31.468Z,17.95
2023-11-30T21:46:59.136Z,17.94
2023-11-30T21:49:26.652Z,17.97
2023-11-30T21:51:55.603Z,17.98
2023-11-30T21:54:22.978Z,17.95
2023-11-30T21:56:50.586Z,17.96
2023-11-30T21:59:18.555Z,17.94
2023-11-30T22:01:47.222Z,17.95
2023-11-30T22:04:15.022Z,17.94
2023-11-30T22:06:44.374Z,17.94
2023-11-30T22:09:13.288Z,17.94
2023-11-30T22:11:43.565Z,17.95
2023-11-30T22:14:11.441Z,17.96
2023-11-30T22:16:40.926Z,17.94
2023-11-30T22:19:08.724Z,17.97
2023-11-30T22:21:36.355Z,17.96
2023-11-30T22:24:03.898Z,17.97
2023-11-30T22:26:32.752Z,17.97
2023-11-30T22:29:02.791Z,17.96
2023-11-30T22:31:34.376Z,17.97
2023-11-30T22:34:02.288Z,17.97
2023-11-30T22:36:29.879Z,17.97
2023-11-30T22:38:58.215Z,17.98
2023-11-30T22:41:25.824Z,17.97
2023-11-30T22:43:54.705Z,17.98
2023-11-30T22:46:22.335Z,17.98
2023-11-30T22:48:51.008Z,18.01
2023-11-30T22:51:18.946Z,18.02
2023-11-30T22:53:46.664Z,18.01
2023-11-30T22:56:18.101Z,18.01
2023-11-30T22:58:45.802Z,18.02
2023-11-30T23:01:15.319Z,18.01
2023-11-30T23:03:44.428Z,18.00
2023-11-30T23:06:12.243Z,18.03
2023-11-30T23:08:39.803Z,18.01
2023-11-30T23:11:08.767Z,17.99
2023-11-30T23:13:36.113Z,17.99
2023-11-30T23:16:03.906Z,17.99
2023-11-30T23:18:33.086Z,18.00
2023-11-30T23:21:00.730Z,18.00
2023-11-30T23:23:28.329Z,18.00
2023-11-30T23:25:55.892Z,17.99
2023-11-30T23:28:23.440Z,17.98
2023-11-30T23:30:51.004Z,18.00
2023-11-30T23:33:18.519Z,18.00
2023-11-30T23:35:47.459Z,18.04
2023-11-30T23:38:14.949Z,18.04
2023-11-30T23:40:42.544Z,18.05
2023-11-30T23:43:10.124Z,18.02
2023-11-30T23:45:37.731Z,18.02
2023-11-30T23:48:05.944Z,18.02
2023-11-30T23:50:33.469Z,18.05
2023-11-30T23:53:02.403Z,18.03
2023-11-30T23:55:29.805Z,18.03
2023-11-30T23:57:57.851Z,18.04
